createdAt,value
2022-11-17T00:00:43.008Z,3.76
2022-11-17T00:03:17.706Z,3.79
2022-11-17T00:05:45.145Z,3.78
2022-11-17T00:08:12.450Z,3.87
2022-11-17T00:10:39.553Z,3.86
2022-11-17T00:13:25.026Z,3.74
2022-11-17T00:15:52.087Z,3.65
2022-11-17T00:18:37.576Z,3.84
2022-11-17T00:21:21.653Z,3.86
2022-11-17T00:23:50.383Z,3.93
2022-11-17T00:26:21.195Z,3.95
2022-11-17T00:28:55.810Z,3.90
2022-11-17T00:31:44.051Z,3.93
2022-11-17T00:34:18.932Z,3.77
2022-11-17T00:36:52.300Z,3.91
2022-11-17T00:39:21.961Z,4.12
2022-11-17T00:41:49.188Z,3.95
2022-11-17T00:44:16.829Z,3.83
2022-11-17T00:46:44.115Z,3.88
2022-11-17T00:49:12.361Z,3.86
2022-11-17T00:51:42.373Z,4.14
2022-11-17T00:54:12.962Z,4.22
2022-11-17T00:56:40.419Z,3.62
2022-11-17T00:59:07.469Z,3.77
2022-11-17T01:01:34.904Z,3.82
2022-11-17T01:04:05.699Z,4.01
2022-11-17T01:06:53.022Z,3.92
2022-11-17T01:09:23.571Z,3.90
2022-11-17T01:11:53.017Z,3.83
2022-11-17T01:14:29.180Z,3.89
2022-11-17T01:16:56.550Z,3.93
2022-11-17T01:19:24.652Z,3.88
2022-11-17T01:21:51.730Z,3.82
2022-11-17T01:24:19.053Z,3.84
2022-11-17T01:26:46.886Z,3.70
2022-11-17T01:29:18.949Z,3.84
2022-11-17T01:31:51.390Z,3.72
2022-11-17T01:34:19.468Z,3.80
2022-11-17T01:37:05.487Z,3.87
2022-11-17T01:39:32.733Z,3.93
2022-11-17T01:42:11.858Z,3.80
2022-11-17T01:44:55.536Z,3.84
2022-11-17T01:47:25.424Z,3.66
2022-11-17T01:50:01.041Z,3.86
2022-11-17T01:52:31.721Z,3.75
2022-11-17T01:55:02.997Z,3.77
2022-11-17T01:57:59.996Z,3.61
2022-11-17T02:00:28.274Z,3.39
2022-11-17T02:02:56.022Z,3.48
2022-11-17T02:05:30.857Z,3.57
2022-11-17T02:08:02.068Z,3.40
2022-11-17T02:10:31.632Z,3.54
2022-11-17T02:13:01.534Z,3.52
2022-11-17T02:15:31.929Z,3.58
2022-11-17T02:18:00.440Z,3.32
2022-11-17T02:21:02.557Z,3.47
2022-11-17T02:23:57.213Z,3.44
2022-11-17T02:26:58.823Z,3.45
2022-11-17T02:29:48.278Z,3.31
2022-11-17T02:32:34.183Z,3.39
2022-11-17T02:35:13.120Z,3.07
2022-11-17T02:38:01.435Z,3.48
2022-11-17T02:41:06.851Z,3.53
2022-11-17T02:44:20.466Z,3.05
2022-11-17T02:47:01.810Z,3.17
2022-11-17T02:49:45.432Z,3.39
2022-11-17T02:52:14.497Z,3.35
2022-11-17T02:54:43.631Z,3.42
2022-11-17T02:57:40.204Z,3.58
2022-11-17T03:00:18.942Z,3.48
2022-11-17T03:03:07.202Z,3.44
2022-11-17T03:05:54.397Z,3.20
2022-11-17T03:08:47.835Z,3.40
2022-11-17T03:11:15.111Z,3.37
2022-11-17T03:13:57.509Z,3.61
2022-11-17T03:17:09.601Z,3.42
2022-11-17T03:20:02.296Z,3.34
2022-11-17T03:22:57.309Z,3.46
2022-11-17T03:25:32.262Z,3.35
2022-11-17T03:28:06.768Z,3.60
2022-11-17T03:30:40.264Z,3.08
2022-11-17T03:33:17.617Z,3.33
2022-11-17T03:36:07.129Z,3.37
2022-11-17T03:38:44.977Z,3.17
2022-11-17T03:41:15.569Z,3.33
2022-11-17T03:43:49.622Z,3.38
2022-11-17T03:46:22.131Z,3.40
2022-11-17T03:49:20.830Z,3.06
2022-11-17T03:51:47.861Z,3.15
2022-11-17T03:54:15.841Z,2.95
2022-11-17T03:57:17.061Z,3.26
2022-11-17T04:00:10.371Z,3.31
2022-11-17T04:02:40.574Z,3.27
2022-11-17T04:05:08.690Z,3.12
2022-11-17T04:07:42.369Z,3.17
2022-11-17T04:10:13.630Z,3.13
2022-11-17T04:13:01.625Z,3.17
2022-11-17T04:15:47.921Z,2.74
2022-11-17T04:18:15.531Z,2.82
2022-11-17T04:20:43.312Z,2.97
2022-11-17T04:23:14.373Z,2.69
2022-11-17T04:26:04.840Z,2.83
2022-11-17T04:28:37.222Z,2.61
2022-11-17T04:31:29.234Z,2.99
2022-11-17T04:33:58.542Z,2.80
2022-11-17T04:36:29.453Z,2.75
2022-11-17T04:38:59.457Z,2.85
2022-11-17T04:41:47.435Z,2.65
2022-11-17T04:44:17.526Z,2.79
2022-11-17T04:46:48.719Z,2.85
2022-11-17T04:49:17.876Z,2.67
2022-11-17T04:51:45.513Z,2.60
2022-11-17T04:54:16.766Z,2.66
2022-11-17T04:56:44.410Z,2.78
2022-11-17T04:59:11.699Z,2.64
2022-11-17T05:01:39.204Z,2.87
2022-11-17T05:04:12.669Z,2.75
2022-11-17T05:06:45.076Z,2.62
2022-11-17T05:09:15.838Z,2.70
2022-11-17T05:12:02.222Z,2.61
2022-11-17T05:14:29.744Z,2.70
2022-11-17T05:17:10.532Z,2.64
2022-11-17T05:19:47.217Z,2.64
2022-11-17T05:22:41.759Z,2.32
2022-11-17T05:25:10.008Z,2.34
2022-11-17T05:27:37.343Z,2.60
2022-11-17T05:30:07.572Z,2.48
2022-11-17T05:32:34.781Z,2.47
2022-11-17T05:35:04.675Z,2.37
2022-11-17T05:37:31.657Z,2.43
2022-11-17T05:39:58.675Z,2.42
2022-11-17T05:42:28.145Z,2.45
2022-11-17T05:44:55.357Z,2.50
2022-11-17T05:47:22.404Z,2.47
2022-11-17T05:49:49.387Z,2.50
2022-11-17T05:52:16.438Z,2.61
2022-11-17T05:54:43.475Z,2.57
2022-11-17T05:57:16.936Z,2.29
2022-11-17T05:59:56.282Z,2.44
2022-11-17T06:02:30.647Z,2.51
2022-11-17T06:04:57.613Z,2.44
2022-11-17T06:07:24.839Z,2.34
2022-11-17T06:09:53.391Z,2.27
2022-11-17T06:12:20.801Z,2.51
2022-11-17T06:14:47.917Z,2.59
2022-11-17T06:17:28.213Z,2.58
2022-11-17T06:20:08.757Z,2.48
2022-11-17T06:22:36.537Z,2.52
2022-11-17T06:25:05.910Z,2.37
2022-11-17T06:27:34.016Z,2.40
2022-11-17T06:30:06.730Z,2.32
2022-11-17T06:32:37.276Z,2.37
2022-11-17T06:35:10.690Z,2.39
2022-11-17T06:37:37.710Z,2.29
2022-11-17T06:40:05.753Z,2.46
2022-11-17T06:42:51.037Z,2.22
2022-11-17T06:45:18.313Z,2.23
2022-11-17T06:47:54.305Z,2.21
2022-11-17T06:50:23.392Z,2.25
2022-11-17T06:52:56.031Z,2.39
2022-11-17T06:55:23.116Z,2.11
2022-11-17T06:57:53.363Z,2.08
2022-11-17T07:00:21.337Z,2.42
2022-11-17T07:02:48.435Z,3.20
2022-11-17T07:05:18.072Z,3.99
2022-11-17T07:07:45.194Z,4.18
2022-11-17T07:10:14.574Z,4.40
2022-11-17T07:12:41.644Z,4.28
2022-11-17T07:15:09.355Z,4.86
2022-11-17T07:17:36.360Z,4.93
2022-11-17T07:20:04.242Z,5.35
2022-11-17T07:22:33.777Z,5.24
2022-11-17T07:25:00.739Z,4.93
2022-11-17T07:27:27.910Z,5.28
2022-11-17T07:29:54.965Z,5.61
2022-11-17T07:32:22.135Z,6.00
2022-11-17T07:34:49.530Z,5.68
2022-11-17T07:37:17.208Z,6.31
2022-11-17T07:39:44.351Z,5.60
2022-11-17T07:42:11.378Z,5.71
2022-11-17T07:44:38.445Z,6.03
2022-11-17T07:47:05.699Z,5.23
2022-11-17T07:49:32.836Z,5.01
2022-11-17T07:52:02.386Z,4.25
2022-11-17T07:54:29.535Z,3.60
2022-11-17T07:56:56.620Z,3.54
2022-11-17T07:59:23.774Z,3.40
2022-11-17T08:01:50.822Z,3.62
2022-11-17T08:04:20.698Z,3.32
2022-11-17T08:06:47.772Z,3.39
2022-11-17T08:09:16.286Z,3.07
2022-11-17T08:11:45.780Z,2.97
2022-11-17T08:14:12.880Z,2.80
2022-11-17T08:16:39.948Z,2.93
2022-11-17T08:19:12.126Z,2.77
2022-11-17T08:21:40.124Z,2.37
2022-11-17T08:24:09.726Z,2.57
2022-11-17T08:26:36.989Z,2.38
2022-11-17T08:29:04.471Z,2.76
2022-11-17T08:31:31.563Z,2.85
2022-11-17T08:33:58.537Z,2.03
2022-11-17T08:36:25.547Z,2.93
2022-11-17T08:38:52.583Z,2.78
2022-11-17T08:41:19.993Z,2.91
2022-11-17T08:43:47.139Z,3.00
2022-11-17T08:46:17.135Z,3.12
2022-11-17T08:48:52.254Z,3.06
2022-11-17T08:51:22.759Z,3.13
2022-11-17T08:53:52.228Z,3.07
2022-11-17T08:56:19.402Z,2.92
2022-11-17T08:58:46.570Z,2.90
2022-11-17T09:01:16.071Z,2.76
2022-11-17T09:03:45.983Z,2.82
2022-11-17T09:06:15.892Z,2.77
2022-11-17T09:08:46.231Z,2.91
2022-11-17T09:11:14.618Z,2.93
2022-11-17T09:13:42.284Z,2.89
2022-11-17T09:16:11.761Z,2.78
2022-11-17T09:18:39.808Z,2.99
2022-11-17T09:21:15.303Z,2.61
2022-11-17T09:23:42.958Z,2.86
2022-11-17T09:26:13.254Z,2.93
2022-11-17T09:28:43.226Z,2.96
2022-11-17T09:31:19.843Z,3.21
2022-11-17T09:33:47.141Z,3.08
2022-11-17T09:36:16.267Z,2.81
2022-11-17T09:38:47.179Z,3.01
2022-11-17T09:41:43.554Z,2.93
2022-11-17T09:44:32.067Z,2.73
2022-11-17T09:47:38.553Z,2.99
2022-11-17T09:50:27.231Z,3.08
2022-11-17T09:53:23.897Z,2.67
2022-11-17T09:56:13.560Z,2.24
2022-11-17T09:58:55.332Z,2.67
2022-11-17T10:01:23.278Z,2.65
2022-11-17T10:03:51.377Z,2.94
2022-11-17T10:06:25.389Z,3.04
2022-11-17T10:09:10.293Z,2.84
2022-11-17T10:11:41.485Z,3.04
2022-11-17T10:14:08.370Z,2.92
2022-11-17T10:16:51.012Z,2.47
2022-11-17T10:19:25.505Z,2.68
2022-11-17T10:22:20.697Z,2.96
2022-11-17T10:24:55.039Z,2.80
2022-11-17T10:27:34.281Z,2.88
2022-11-17T10:30:24.486Z,2.64
2022-11-17T10:33:00.949Z,2.16
2022-11-17T10:35:35.804Z,2.31
2022-11-17T10:38:20.940Z,2.77
2022-11-17T10:40:52.966Z,3.05
2022-11-17T10:43:30.931Z,3.13
2022-11-17T10:46:12.577Z,2.96
2022-11-17T10:48:53.420Z,3.01
2022-11-17T10:51:26.972Z,2.78
2022-11-17T10:54:21.015Z,3.04
2022-11-17T10:56:57.559Z,2.80
2022-11-17T11:00:05.301Z,2.89
2022-11-17T11:02:40.254Z,2.39
2022-11-17T11:05:08.898Z,3.10
2022-11-17T11:07:36.979Z,3.06
2022-11-17T11:10:31.895Z,2.92
2022-11-17T11:13:29.571Z,3.28
2022-11-17T11:15:56.661Z,3.16
2022-11-17T11:18:23.864Z,3.32
2022-11-17T11:21:02.702Z,3.21
2022-11-17T11:23:54.636Z,3.32
2022-11-17T11:27:01.680Z,2.90
2022-11-17T11:29:57.848Z,3.27
2022-11-17T11:33:07.462Z,3.15
2022-11-17T11:36:15.294Z,3.13
2022-11-17T11:38:51.395Z,3.18
2022-11-17T11:42:06.402Z,3.23
2022-11-17T11:44:53.004Z,3.10
2022-11-17T11:47:38.046Z,3.08
2022-11-17T11:50:27.267Z,2.89
2022-11-17T11:53:23.634Z,3.03
2022-11-17T11:56:06.084Z,2.88
2022-11-17T11:58:33.045Z,2.72
2022-11-17T12:01:01.104Z,2.88
2022-11-17T12:03:46.466Z,3.24
2022-11-17T12:06:35.847Z,3.24
2022-11-17T12:09:19.223Z,2.84
2022-11-17T12:12:02.676Z,3.00
2022-11-17T12:14:36.432Z,2.98
2022-11-17T12:17:26.275Z,3.16
2022-11-17T12:20:07.494Z,3.05
2022-11-17T12:22:37.429Z,2.80
2022-11-17T12:25:29.131Z,2.65
2022-11-17T12:27:56.252Z,2.89
2022-11-17T12:30:36.745Z,2.66
2022-11-17T12:33:08.627Z,2.85
2022-11-17T12:35:37.249Z,2.94
2022-11-17T12:38:20.068Z,2.99
2022-11-17T12:40:51.644Z,3.02
2022-11-17T12:43:29.918Z,2.79
2022-11-17T12:46:03.619Z,2.93
2022-11-17T12:48:34.808Z,2.84
2022-11-17T12:51:29.403Z,2.75
2022-11-17T12:54:21.074Z,2.90
2022-11-17T12:56:51.912Z,2.97
2022-11-17T13:00:10.776Z,2.67
2022-11-17T13:03:22.273Z,2.34
2022-11-17T13:09:12.380Z,2.18
2022-11-17T13:11:41.858Z,2.38
2022-11-17T13:14:16.726Z,2.36
2022-11-17T13:16:50.851Z,2.43
2022-11-17T13:19:41.454Z,2.07
2022-11-17T13:22:11.455Z,2.07
2022-11-17T13:24:47.412Z,2.16
2022-11-17T13:27:32.852Z,2.21
2022-11-17T13:30:21.716Z,2.32
2022-11-17T13:32:49.590Z,2.47
2022-11-17T13:35:29.861Z,2.42
2022-11-17T13:38:12.208Z,2.24
2022-11-17T13:40:40.878Z,2.27
2022-11-17T13:43:17.313Z,2.12
2022-11-17T13:45:45.822Z,2.30
2022-11-17T13:48:35.588Z,2.63
2022-11-17T13:51:20.762Z,2.45
2022-11-17T13:53:59.197Z,2.35
2022-11-17T13:56:36.715Z,2.34
2022-11-17T13:59:26.175Z,2.08
2022-11-17T14:02:20.862Z,1.96
2022-11-17T14:05:15.088Z,2.35
2022-11-17T14:07:44.441Z,2.13
2022-11-17T14:10:15.222Z,2.07
2022-11-17T14:12:45.195Z,2.56
2022-11-17T14:15:27.506Z,2.56
2022-11-17T14:18:00.163Z,2.50
2022-11-17T14:20:35.895Z,2.15
2022-11-17T14:23:02.934Z,2.36
2022-11-17T14:25:39.401Z,2.15
2022-11-17T14:28:19.250Z,2.36
2022-11-17T14:30:52.312Z,2.01
2022-11-17T14:33:20.699Z,2.31
2022-11-17T14:35:55.026Z,2.35
2022-11-17T14:38:22.455Z,1.97
2022-11-17T14:40:52.275Z,2.33
2022-11-17T14:43:21.116Z,2.17
2022-11-17T14:45:49.781Z,2.00
2022-11-17T14:48:20.337Z,2.33
2022-11-17T14:50:48.391Z,2.10
2022-11-17T14:53:17.549Z,2.05
2022-11-17T14:55:47.507Z,1.92
2022-11-17T14:58:15.159Z,2.11
2022-11-17T15:00:44.657Z,2.17
2022-11-17T15:03:11.805Z,2.08
2022-11-17T15:05:46.195Z,1.75
2022-11-17T15:08:18.179Z,2.00
2022-11-17T15:10:45.957Z,2.06
2022-11-17T15:13:13.067Z,1.86
2022-11-17T15:15:40.175Z,2.21
2022-11-17T15:18:12.843Z,2.11
2022-11-17T15:20:39.902Z,2.22
2022-11-17T15:23:06.916Z,2.10
2022-11-17T15:25:33.945Z,2.21
2022-11-17T15:28:01.024Z,2.01
2022-11-17T15:30:28.278Z,2.00
2022-11-17T15:32:55.347Z,2.15
2022-11-17T15:35:22.332Z,1.81
2022-11-17T15:37:49.395Z,1.73
2022-11-17T15:40:19.572Z,1.61
2022-11-17T15:42:46.785Z,1.87
2022-11-17T15:45:13.962Z,1.68
2022-11-17T15:47:40.981Z,1.85
2022-11-17T15:50:08.813Z,2.10
2022-11-17T15:53:02.329Z,1.81
2022-11-17T15:55:22.842Z,2.09
2022-11-17T15:57:54.669Z,1.86
2022-11-17T16:00:21.946Z,1.54
2022-11-17T16:02:55.804Z,1.79
2022-11-17T16:05:25.585Z,1.82
2022-11-17T16:07:52.688Z,2.00
2022-11-17T16:10:19.722Z,1.71
2022-11-17T16:12:49.534Z,1.94
2022-11-17T16:15:19.601Z,1.67
2022-11-17T16:17:46.603Z,1.96
2022-11-17T16:20:14.206Z,2.09
2022-11-17T16:22:41.218Z,2.15
2022-11-17T16:25:10.678Z,1.95
2022-11-17T16:27:37.743Z,1.87
2022-11-17T16:30:05.241Z,1.98
2022-11-17T16:32:32.386Z,1.79
2022-11-17T16:35:01.482Z,1.66
2022-11-17T16:37:28.542Z,1.54
2022-11-17T16:39:56.408Z,1.36
2022-11-17T16:42:23.417Z,1.27
2022-11-17T16:44:50.603Z,1.36
2022-11-17T16:47:17.606Z,1.39
2022-11-17T16:49:47.851Z,1.22
2022-11-17T16:52:17.642Z,1.08
2022-11-17T16:54:44.638Z,1.02
2022-11-17T16:57:11.658Z,1.09
2022-11-17T16:59:41.315Z,1.19
2022-11-17T17:02:15.503Z,1.17
2022-11-17T17:04:42.478Z,1.17
2022-11-17T17:07:09.555Z,1.13
2022-11-17T17:09:37.868Z,1.28
2022-11-17T17:12:05.675Z,1.35
2022-11-17T17:14:32.684Z,1.23
2022-11-17T17:17:02.298Z,1.14
2022-11-17T17:19:29.579Z,1.17
2022-11-17T17:21:56.784Z,1.32
2022-11-17T17:24:23.805Z,1.31
2022-11-17T17:26:50.810Z,1.37
2022-11-17T17:29:18.283Z,1.09
2022-11-17T17:31:45.564Z,1.02
2022-11-17T17:34:13.378Z,1.19
2022-11-17T17:36:45.684Z,1.08
2022-11-17T17:39:15.680Z,1.39
2022-11-17T17:41:44.531Z,1.14
2022-11-17T17:44:18.713Z,1.29
2022-11-17T17:46:46.860Z,1.44
2022-11-17T17:49:14.644Z,1.33
2022-11-17T17:51:44.443Z,1.61
2022-11-17T17:54:21.460Z,1.78
2022-11-17T17:56:48.596Z,1.94
2022-11-17T17:59:16.821Z,2.06
2022-11-17T18:01:46.281Z,1.60
2022-11-17T18:04:16.086Z,1.82
2022-11-17T18:06:48.794Z,1.71
2022-11-17T18:09:20.626Z,1.82
2022-11-17T18:11:50.821Z,1.72
2022-11-17T18:14:23.941Z,2.01
2022-11-17T18:16:54.336Z,2.11
2022-11-17T18:19:22.288Z,2.17
2022-11-17T18:21:49.504Z,2.18
2022-11-17T18:24:16.570Z,2.36
2022-11-17T18:26:43.850Z,2.44
2022-11-17T18:29:18.541Z,2.10
2022-11-17T18:31:47.539Z,2.03
2022-11-17T18:34:22.991Z,2.07
2022-11-17T18:36:58.073Z,2.11
2022-11-17T18:39:25.320Z,2.30
2022-11-17T18:41:52.376Z,2.25
2022-11-17T18:44:19.803Z,2.42
2022-11-17T18:46:49.435Z,2.42
2022-11-17T18:49:16.929Z,2.08
2022-11-17T18:51:46.340Z,2.31
2022-11-17T18:54:16.026Z,1.85
2022-11-17T18:56:46.905Z,2.14
2022-11-17T18:59:14.347Z,2.13
2022-11-17T19:01:43.326Z,1.82
2022-11-17T19:04:13.997Z,1.68
2022-11-17T19:06:41.335Z,1.43
2022-11-17T19:09:08.597Z,1.69
2022-11-17T19:11:35.849Z,1.44
2022-11-17T19:14:05.266Z,1.40
2022-11-17T19:16:33.432Z,1.26
2022-11-17T19:19:00.710Z,1.29
2022-11-17T19:21:36.006Z,1.38
2022-11-17T19:24:07.818Z,1.59
2022-11-17T19:26:36.255Z,1.39
2022-11-17T19:29:16.140Z,1.41
2022-11-17T19:31:47.506Z,1.40
2022-11-17T19:34:16.065Z,1.51
2022-11-17T19:36:45.350Z,1.51
2022-11-17T19:39:14.197Z,1.73
2022-11-17T19:41:42.219Z,1.83
2022-11-17T19:44:10.002Z,1.87
2022-11-17T19:46:37.582Z,1.89
2022-11-17T19:49:06.294Z,1.42
2022-11-17T19:51:41.975Z,1.64
2022-11-17T19:54:11.838Z,1.70
2022-11-17T19:56:38.978Z,1.84
2022-11-17T19:59:09.701Z,1.78
2022-11-17T20:01:39.668Z,1.68
2022-11-17T20:04:07.426Z,1.82
2022-11-17T20:06:38.569Z,1.47
2022-11-17T20:09:14.981Z,1.72
2022-11-17T20:11:42.907Z,1.54
2022-11-17T20:14:10.919Z,1.54
2022-11-17T20:16:40.490Z,1.64
2022-11-17T20:19:08.696Z,1.31
2022-11-17T20:21:35.818Z,1.77
2022-11-17T20:24:03.377Z,1.59
2022-11-17T20:26:33.922Z,1.35
2022-11-17T20:29:03.256Z,1.36
2022-11-17T20:31:33.629Z,1.47
2022-11-17T20:34:03.782Z,1.28
2022-11-17T20:36:34.015Z,1.48
2022-11-17T20:39:05.602Z,1.58
2022-11-17T20:41:33.012Z,1.53
2022-11-17T20:44:26.721Z,1.39
2022-11-17T20:46:58.088Z,1.56
2022-11-17T20:49:27.940Z,1.49
2022-11-17T20:52:03.225Z,1.50
2022-11-17T20:54:36.276Z,1.45
2022-11-17T20:57:10.048Z,1.09
2022-11-17T20:59:37.516Z,1.00
2022-11-17T21:02:04.631Z,1.24
2022-11-17T21:04:32.010Z,1.01
2022-11-17T21:07:01.968Z,1.03
2022-11-17T21:09:29.090Z,0.92
2022-11-17T21:11:59.394Z,0.76
2022-11-17T21:14:27.665Z,0.66
2022-11-17T21:16:57.626Z,0.55
2022-11-17T21:19:24.770Z,0.46
2022-11-17T21:21:53.445Z,0.35
2022-11-17T21:24:22.074Z,0.43
2022-11-17T21:26:51.507Z,0.45
2022-11-17T21:29:18.687Z,0.54
2022-11-17T21:31:46.408Z,0.52
2022-11-17T21:34:17.408Z,0.38
2022-11-17T21:36:44.855Z,0.33
2022-11-17T21:39:18.260Z,0.36
2022-11-17T21:41:48.357Z,0.30
2022-11-17T21:44:15.523Z,0.29
2022-11-17T21:46:42.584Z,0.24
2022-11-17T21:49:09.724Z,0.14
2022-11-17T21:51:38.691Z,0.26
2022-11-17T21:54:09.795Z,0.36
2022-11-17T21:56:37.237Z,0.19
2022-11-17T21:59:10.221Z,0.18
2022-11-17T22:01:37.804Z,0.15
2022-11-17T22:04:05.058Z,-0.10
2022-11-17T22:06:34.565Z,-0.03
2022-11-17T22:09:01.609Z,-0.05
2022-11-17T22:11:38.200Z,-0.23
2022-11-17T22:14:19.280Z,-0.21
2022-11-17T22:16:47.686Z,-0.14
2022-11-17T22:19:17.257Z,0.00
2022-11-17T22:21:47.118Z,0.12
2022-11-17T22:24:14.299Z,-0.01
2022-11-17T22:26:44.233Z,-0.36
2022-11-17T22:29:21.263Z,-0.21
2022-11-17T22:31:53.438Z,-0.42
2022-11-17T22:34:22.976Z,-0.54
2022-11-17T22:36:52.329Z,-0.31
2022-11-17T22:39:19.785Z,-0.35
2022-11-17T22:41:47.032Z,-0.53
2022-11-17T22:44:18.239Z,-0.38
2022-11-17T22:46:45.770Z,-0.38
2022-11-17T22:49:13.610Z,-0.39
2022-11-17T22:51:59.766Z,-0.22
2022-11-17T22:54:26.890Z,-0.28
2022-11-17T22:56:54.374Z,-0.27
2022-11-17T22:59:24.740Z,-0.38
2022-11-17T23:01:51.889Z,-0.27
2022-11-17T23:04:20.917Z,-0.28
2022-11-17T23:06:48.177Z,-0.12
2022-11-17T23:09:16.043Z,-0.36
2022-11-17T23:11:49.507Z,-0.26
2022-11-17T23:14:16.995Z,-0.37
2022-11-17T23:16:44.228Z,-0.35
2022-11-17T23:19:14.838Z,-0.30
2022-11-17T23:21:44.695Z,-0.24
2022-11-17T23:24:15.015Z,-0.22
2022-11-17T23:26:42.701Z,-0.59
2022-11-17T23:29:10.358Z,-0.54
2022-11-17T23:31:37.711Z,-0.48
2022-11-17T23:34:04.940Z,-0.49
2022-11-17T23:36:32.158Z,-0.69
2022-11-17T23:38:59.610Z,-0.74
2022-11-17T23:41:26.932Z,-0.63
2022-11-17T23:43:54.923Z,-0.90
2022-11-17T23:46:25.247Z,-0.73
2022-11-17T23:48:53.273Z,-1.01
2022-11-17T23:51:23.020Z,-0.90
2022-11-17T23:53:52.792Z,-0.94
2022-11-17T23:56:21.898Z,-1.56
2022-11-17T23:58:51.446Z,-1.30
